createdAt,value
2018-06-20T00:00:08.413Z,5.20
2018-06-20T00:02:36.893Z,4.13
2018-06-20T00:05:05.350Z,4.10
2018-06-20T00:07:33.853Z,5.03
2018-06-20T00:10:02.313Z,4.67
2018-06-20T00:12:30.841Z,5.43
2018-06-20T00:14:59.355Z,4.37
2018-06-20T00:17:27.520Z,3.97
2018-06-20T00:19:55.659Z,4.67
2018-06-20T00:22:24.277Z,4.33
2018-06-20T00:24:52.432Z,4.90
2018-06-20T00:27:20.909Z,4.10
2018-06-20T00:29:49.343Z,4.63
2018-06-20T00:32:17.838Z,3.93
2018-06-20T00:34:46.307Z,4.10
2018-06-20T00:37:14.778Z,4.10
2018-06-20T00:39:43.244Z,5.27
2018-06-20T00:42:11.720Z,5.17
2018-06-20T00:44:40.197Z,4.47
2018-06-20T00:47:08.679Z,4.47
2018-06-20T00:49:37.142Z,4.33
2018-06-20T00:52:05.621Z,5.47
2018-06-20T00:54:34.090Z,4.83
2018-06-20T00:57:02.617Z,5.17
2018-06-20T00:59:31.085Z,3.83
2018-06-20T01:01:59.573Z,4.37
2018-06-20T01:04:28.014Z,4.73
2018-06-20T01:06:56.509Z,4.07
2018-06-20T01:09:24.995Z,4.57
2018-06-20T01:11:53.580Z,4.77
2018-06-20T01:14:21.972Z,4.47
2018-06-20T01:16:50.429Z,4.33
2018-06-20T01:19:18.941Z,4.80
2018-06-20T01:21:47.407Z,4.80
2018-06-20T01:24:15.897Z,6.20
2018-06-20T01:26:44.361Z,4.17
2018-06-20T01:29:12.860Z,4.40
2018-06-20T01:31:41.301Z,4.67
2018-06-20T01:34:09.778Z,5.30
2018-06-20T01:36:38.237Z,4.67
2018-06-20T01:39:07.616Z,4.10
2018-06-20T01:41:36.071Z,5.20
2018-06-20T01:44:04.807Z,4.30
2018-06-20T01:46:33.285Z,4.13
2018-06-20T03:39:51.710Z,7.43
2018-06-20T03:42:20.110Z,6.53
2018-06-20T03:44:48.539Z,6.33
2018-06-20T03:47:16.641Z,7.80
2018-06-20T03:49:45.064Z,5.77
2018-06-20T03:52:13.487Z,6.40
2018-06-20T03:54:41.921Z,6.20
2018-06-20T03:57:10.334Z,6.33
2018-06-20T03:59:38.765Z,6.73
2018-06-20T04:02:07.190Z,7.00
2018-06-20T04:04:35.327Z,7.93
2018-06-20T04:07:03.817Z,6.70
2018-06-20T04:09:32.269Z,6.37
2018-06-20T04:12:00.680Z,5.40
2018-06-20T04:14:29.085Z,5.40
2018-06-20T04:16:57.516Z,5.40
2018-06-20T04:19:25.948Z,5.23
2018-06-20T04:21:54.386Z,5.90
2018-06-20T04:24:22.838Z,5.47
2018-06-20T04:26:51.261Z,6.40
2018-06-20T04:29:19.674Z,8.60
2018-06-20T04:31:48.090Z,7.63
2018-06-20T04:34:16.541Z,8.20
2018-06-20T04:36:45.007Z,8.23
2018-06-20T04:39:13.429Z,6.57
2018-06-20T04:41:41.882Z,5.70
2018-06-20T04:44:10.528Z,5.50
2018-06-20T04:46:39.077Z,5.47
2018-06-20T04:49:07.503Z,6.20
2018-06-20T04:51:35.645Z,6.17
2018-06-20T04:54:04.101Z,6.77
2018-06-20T04:56:32.549Z,6.50
2018-06-20T04:59:00.981Z,5.93
2018-06-20T05:01:29.412Z,5.90
2018-06-20T05:03:57.841Z,6.47
2018-06-20T05:06:26.271Z,6.53
2018-06-20T05:08:54.701Z,5.97
2018-06-20T05:11:23.130Z,5.60
2018-06-20T05:13:51.555Z,6.27
2018-06-20T05:16:20.001Z,6.13
2018-06-20T05:18:48.426Z,6.80
2018-06-20T05:21:16.841Z,5.83
2018-06-20T05:23:45.276Z,5.30
2018-06-20T05:26:13.722Z,5.63
2018-06-20T05:28:47.386Z,6.67
2018-06-20T05:31:15.781Z,6.53
2018-06-20T05:33:44.198Z,10.17
2018-06-20T05:36:12.629Z,7.57
2018-06-20T05:38:40.757Z,7.70
2018-06-20T05:41:09.219Z,7.37
2018-06-20T05:43:37.631Z,6.93
2018-06-20T05:46:05.801Z,7.67
2018-06-20T05:48:34.239Z,6.67
2018-06-20T05:51:02.691Z,7.33
2018-06-20T05:53:31.473Z,7.43
2018-06-20T05:55:59.912Z,7.57
2018-06-20T05:58:28.327Z,8.30
2018-06-20T06:00:56.769Z,6.90
2018-06-20T06:03:25.215Z,7.23
2018-06-20T06:06:14.980Z,6.93
2018-06-20T06:08:43.976Z,7.70
2018-06-20T06:11:12.453Z,6.37
2018-06-20T06:13:40.909Z,7.23
2018-06-20T06:16:09.361Z,7.47
2018-06-20T06:18:37.882Z,6.40
2018-06-20T06:21:06.809Z,5.50
2018-06-20T06:23:35.243Z,5.73
2018-06-20T06:26:03.428Z,6.50
2018-06-20T06:28:31.854Z,7.07
2018-06-20T06:31:00.286Z,5.20
2018-06-20T06:33:28.726Z,5.33
2018-06-20T06:35:57.166Z,4.90
2018-06-20T06:38:25.630Z,5.00
2018-06-20T06:40:54.075Z,4.77
2018-06-20T06:43:22.507Z,5.13
2018-06-20T06:45:50.915Z,4.70
2018-06-20T06:48:19.349Z,5.10
2018-06-20T06:50:47.761Z,4.50
2018-06-20T06:53:16.176Z,4.00
2018-06-20T06:55:44.581Z,4.43
2018-06-20T06:58:12.989Z,4.93
2018-06-20T07:00:41.409Z,4.83
2018-06-20T07:03:09.843Z,5.43
2018-06-20T07:05:38.252Z,4.03
2018-06-20T07:08:06.713Z,3.97
2018-06-20T07:10:35.145Z,3.50
2018-06-20T07:13:03.595Z,4.50
2018-06-20T07:15:32.075Z,5.27
2018-06-20T07:18:00.501Z,6.73
2018-06-20T07:20:29.003Z,3.80
2018-06-20T07:22:57.430Z,4.43
2018-06-20T07:25:25.878Z,4.73
2018-06-20T07:27:54.276Z,4.93
2018-06-20T07:30:22.721Z,5.13
2018-06-20T07:32:51.125Z,5.13
2018-06-20T07:35:19.656Z,4.27
2018-06-20T07:37:48.022Z,4.30
2018-06-20T07:40:16.168Z,3.87
2018-06-20T07:42:44.594Z,4.67
2018-06-20T07:45:13.056Z,3.60
2018-06-20T07:47:41.477Z,6.50
2018-06-20T07:50:09.907Z,4.63
2018-06-20T07:52:38.028Z,3.23
2018-06-20T07:55:06.463Z,4.27
2018-06-20T07:57:34.573Z,4.07
2018-06-20T08:00:08.448Z,3.87
2018-06-20T08:02:53.598Z,4.00
2018-06-20T08:05:27.116Z,3.47
2018-06-20T08:08:00.901Z,3.90
2018-06-20T08:10:34.614Z,3.93
2018-06-20T08:13:08.208Z,4.00
2018-06-20T08:15:41.796Z,4.17
2018-06-20T08:18:16.078Z,3.97
2018-06-20T08:20:44.527Z,3.47
2018-06-20T08:23:12.932Z,5.30
2018-06-20T08:25:41.502Z,3.87
2018-06-20T08:28:09.862Z,3.70
2018-06-20T08:30:38.300Z,3.23
2018-06-20T08:33:06.717Z,4.23
2018-06-20T08:35:35.161Z,2.73
2018-06-20T08:38:03.609Z,3.23
2018-06-20T08:40:32.009Z,3.30
2018-06-20T08:43:00.469Z,4.60
2018-06-20T08:45:28.938Z,3.70
2018-06-20T08:47:57.353Z,3.43
2018-06-20T08:50:25.766Z,3.73
2018-06-20T08:52:53.894Z,4.33
2018-06-20T08:55:22.331Z,3.10
2018-06-20T08:57:50.746Z,3.90
2018-06-20T09:00:24.552Z,4.00
2018-06-20T09:02:52.999Z,3.63
2018-06-20T09:05:26.707Z,3.40
2018-06-20T09:08:00.419Z,3.87
2018-06-20T09:10:34.209Z,2.93
2018-06-20T09:13:07.927Z,3.93
2018-06-20T09:15:41.685Z,2.93
2018-06-20T09:18:15.392Z,4.23
2018-06-20T09:20:43.813Z,3.20
2018-06-20T09:23:12.420Z,3.87
2018-06-20T09:25:40.875Z,3.00
2018-06-20T09:28:09.441Z,3.10
2018-06-20T09:30:38.054Z,2.80
2018-06-20T09:33:06.549Z,3.50
2018-06-20T09:35:34.977Z,4.77
2018-06-20T09:38:03.435Z,3.30
2018-06-20T09:40:31.858Z,4.17
2018-06-20T09:43:00.314Z,3.63
2018-06-20T09:45:28.853Z,5.50
2018-06-20T09:47:57.303Z,3.17
2018-06-20T09:50:31.108Z,3.27
2018-06-20T09:52:59.546Z,2.57
2018-06-20T09:55:27.633Z,2.67
2018-06-20T09:57:56.157Z,3.30
2018-06-20T10:00:29.611Z,2.50
2018-06-20T10:03:03.395Z,2.50
2018-06-20T10:05:37.259Z,3.80
2018-06-20T10:08:11.069Z,3.23
2018-06-20T10:10:44.817Z,2.80
2018-06-20T10:13:15.551Z,2.57
2018-06-20T10:15:43.934Z,2.90
2018-06-20T10:18:12.357Z,2.53
2018-06-20T10:20:40.794Z,2.50
2018-06-20T10:23:09.245Z,2.83
2018-06-20T10:25:37.698Z,2.50
2018-06-20T10:28:06.123Z,2.77
2018-06-20T10:30:34.245Z,1.73
2018-06-20T10:33:02.654Z,2.67
2018-06-20T10:35:31.099Z,2.50
2018-06-20T10:37:59.476Z,2.60
2018-06-20T10:40:27.926Z,2.30
2018-06-20T10:42:56.310Z,2.47
2018-06-20T10:45:30.143Z,2.10
2018-06-20T10:47:58.557Z,1.63
2018-06-20T10:50:27.030Z,1.93
2018-06-20T10:52:55.426Z,3.00
2018-06-20T10:55:23.846Z,1.90
2018-06-20T10:57:57.613Z,4.30
2018-06-20T11:00:31.101Z,3.17
2018-06-20T11:03:04.822Z,2.93
2018-06-20T11:05:38.664Z,3.23
2018-06-20T11:08:12.532Z,2.17
2018-06-20T11:10:46.075Z,2.30
2018-06-20T11:13:15.565Z,2.60
2018-06-20T11:15:44.846Z,2.47
2018-06-20T11:18:13.258Z,2.73
2018-06-20T11:20:47.110Z,2.40
2018-06-20T11:23:15.599Z,2.20
2018-06-20T11:25:44.022Z,2.07
2018-06-20T11:28:14.622Z,1.97
2018-06-20T11:30:44.351Z,2.63
2018-06-20T11:33:12.929Z,2.17
2018-06-20T11:35:41.426Z,3.83
2018-06-20T11:38:09.865Z,2.30
2018-06-20T11:40:37.972Z,2.23
2018-06-20T11:43:06.572Z,2.27
2018-06-20T11:45:40.237Z,3.40
2018-06-20T11:48:08.729Z,2.80
2018-06-20T11:50:37.147Z,3.20
2018-06-20T11:53:10.619Z,2.40
2018-06-20T11:55:41.218Z,2.07
2018-06-20T11:58:15.128Z,1.90
2018-06-20T12:00:48.757Z,2.33
2018-06-20T12:03:22.400Z,2.23
2018-06-20T12:05:56.274Z,2.37
2018-06-20T12:08:29.944Z,2.17
2018-06-20T12:11:03.671Z,3.37
2018-06-20T12:13:37.242Z,4.47
2018-06-20T12:16:11.153Z,2.60
2018-06-20T12:18:44.893Z,4.40
2018-06-20T12:21:18.567Z,2.37
2018-06-20T12:23:52.453Z,3.57
2018-06-20T12:26:26.083Z,2.17
2018-06-20T12:28:59.833Z,2.97
2018-06-20T12:31:33.649Z,3.00
2018-06-20T12:34:07.515Z,2.73
2018-06-20T12:36:41.334Z,2.63
2018-06-20T12:39:08.949Z,2.30
2018-06-20T12:41:42.738Z,3.73
2018-06-20T12:44:16.167Z,3.33
2018-06-20T12:47:47.838Z,2.83
2018-06-20T12:50:20.733Z,2.20
2018-06-20T12:52:49.933Z,2.13
2018-06-20T12:55:18.384Z,2.80
2018-06-20T12:57:46.841Z,3.53
2018-06-20T13:00:15.623Z,2.97
2018-06-20T13:02:44.450Z,2.53
2018-06-20T13:05:12.897Z,3.00
2018-06-20T13:07:41.054Z,4.40
2018-06-20T13:10:09.539Z,3.53
2018-06-20T13:12:38.029Z,4.23
2018-06-20T13:15:06.133Z,2.33
2018-06-20T13:17:34.570Z,2.53
2018-06-20T13:20:03.183Z,2.97
2018-06-20T13:22:31.638Z,2.60
2018-06-20T13:25:00.106Z,2.87
2018-06-20T13:27:33.937Z,2.67
2018-06-20T13:30:07.445Z,2.50
2018-06-20T13:32:41.227Z,3.90
2018-06-20T13:35:15.091Z,2.00
2018-06-20T13:37:48.959Z,3.53
2018-06-20T13:40:22.816Z,6.03
2018-06-20T13:42:56.566Z,2.90
2018-06-20T13:45:30.330Z,3.23
2018-06-20T13:48:03.996Z,1.93
2018-06-20T13:50:32.581Z,3.07
2018-06-20T13:53:01.222Z,2.40
2018-06-20T13:55:29.395Z,3.73
2018-06-20T13:57:57.506Z,3.27
2018-06-20T14:00:26.173Z,2.63
2018-06-20T14:02:54.590Z,2.37
2018-06-20T14:05:23.048Z,1.93
2018-06-20T14:07:51.463Z,2.53
2018-06-20T14:10:19.893Z,2.27
2018-06-20T14:12:48.309Z,1.63
2018-06-20T14:15:16.722Z,3.33
2018-06-20T14:17:45.142Z,2.77
2018-06-20T14:20:18.906Z,2.73
2018-06-20T14:22:47.329Z,2.67
2018-06-20T14:25:15.758Z,2.97
2018-06-20T14:27:44.191Z,1.80
2018-06-20T14:30:16.804Z,1.97
2018-06-20T14:32:50.421Z,4.17
2018-06-20T14:35:24.221Z,2.30
2018-06-20T14:37:58.163Z,2.17
2018-06-20T14:40:31.809Z,2.30
2018-06-20T14:43:03.869Z,2.30
2018-06-20T14:46:35.293Z,2.00
2018-06-20T14:49:03.709Z,3.43
2018-06-20T14:51:32.136Z,2.27
2018-06-20T14:54:00.573Z,2.70
2018-06-20T14:56:29.019Z,2.60
2018-06-20T14:58:57.441Z,2.83
2018-06-20T15:01:25.884Z,2.97
2018-06-20T15:03:54.393Z,2.00
2018-06-20T15:06:22.845Z,3.33
2018-06-20T15:08:51.281Z,1.87
2018-06-20T15:11:19.389Z,1.70
2018-06-20T15:13:47.853Z,2.10
2018-06-20T15:16:21.726Z,3.93
2018-06-20T15:18:50.160Z,2.00
2018-06-20T15:21:18.573Z,3.27
2018-06-20T15:23:47.056Z,3.40
2018-06-20T15:26:20.866Z,1.80
2018-06-20T15:28:54.683Z,3.37
2018-06-20T15:31:28.386Z,1.90
2018-06-20T15:34:02.091Z,2.07
2018-06-20T15:36:35.908Z,2.73
2018-06-20T15:39:06.046Z,4.10
2018-06-20T15:41:34.444Z,2.00
2018-06-20T15:44:02.987Z,1.73
2018-06-20T15:46:31.077Z,4.17
2018-06-20T15:48:59.490Z,2.77
2018-06-20T15:51:27.889Z,2.67
2018-06-20T15:53:56.348Z,1.93
2018-06-20T15:56:24.829Z,2.00
2018-06-20T15:58:53.307Z,4.40
2018-06-20T16:01:21.714Z,2.60
2018-06-20T16:03:50.141Z,2.10
2018-06-20T16:06:18.573Z,1.80
2018-06-20T16:08:52.336Z,3.47
2018-06-20T16:11:20.756Z,2.40
2018-06-20T16:13:49.177Z,2.27
2018-06-20T16:16:17.641Z,2.40
2018-06-20T16:18:51.345Z,3.03
2018-06-20T16:21:24.833Z,2.20
2018-06-20T16:23:58.654Z,2.73
2018-06-20T16:26:32.340Z,2.57
2018-06-20T16:29:06.094Z,2.83
2018-06-20T16:31:34.530Z,3.97
2018-06-20T16:34:02.954Z,3.73
2018-06-20T16:36:31.401Z,3.10
2018-06-20T16:38:59.825Z,3.33
2018-06-20T16:41:28.266Z,2.13
2018-06-20T16:43:56.690Z,2.30
2018-06-20T16:46:25.145Z,2.97
2018-06-20T16:48:53.944Z,4.63
2018-06-20T16:51:22.343Z,3.33
2018-06-20T16:53:50.754Z,2.70
2018-06-20T16:56:19.197Z,2.80
2018-06-20T16:58:47.625Z,4.77
2018-06-20T17:01:21.441Z,3.13
2018-06-20T17:03:49.860Z,3.70
2018-06-20T17:06:18.372Z,2.33
2018-06-20T17:08:46.717Z,3.80
2018-06-20T17:11:15.170Z,3.30
2018-06-20T17:13:48.970Z,2.40
2018-06-20T17:16:22.783Z,2.60
2018-06-20T17:18:56.630Z,2.77
2018-06-20T17:21:30.590Z,4.83
2018-06-20T17:24:04.171Z,2.70
2018-06-20T17:26:32.641Z,3.00
2018-06-20T17:29:01.089Z,2.80
2018-06-20T17:31:29.524Z,2.87
2018-06-20T17:33:57.953Z,2.60
2018-06-20T17:36:26.401Z,5.30
2018-06-20T17:38:54.853Z,4.80
2018-06-20T17:41:23.337Z,3.00
2018-06-20T17:43:51.762Z,2.50
2018-06-20T17:46:20.229Z,2.90
2018-06-20T17:48:48.650Z,3.30
2018-06-20T17:51:16.774Z,2.60
2018-06-20T17:53:45.210Z,2.50
2018-06-20T17:56:13.622Z,3.13
2018-06-20T17:58:42.057Z,2.47
2018-06-20T18:01:11.931Z,2.40
2018-06-20T18:03:41.485Z,3.30
2018-06-20T18:06:15.226Z,3.57
2018-06-20T18:08:49.027Z,3.10
2018-06-20T18:12:20.371Z,2.60
2018-06-20T18:14:54.073Z,3.17
2018-06-20T18:17:22.755Z,2.53
2018-06-20T18:19:51.211Z,2.87
2018-06-20T18:22:19.673Z,4.53
2018-06-20T18:24:47.846Z,3.47
2018-06-20T18:27:16.284Z,3.97
2018-06-20T18:29:45.043Z,3.70
2018-06-20T18:32:13.470Z,3.87
2018-06-20T18:34:41.957Z,4.00
2018-06-20T18:37:10.341Z,3.07
2018-06-20T18:39:44.185Z,4.77
2018-06-20T18:42:12.610Z,3.63
2018-06-20T18:44:41.089Z,2.80
2018-06-20T18:47:09.548Z,4.20
2018-06-20T18:49:38.009Z,5.27
2018-06-20T18:52:06.465Z,3.80
2018-06-20T18:54:34.919Z,3.40
2018-06-20T18:57:03.416Z,3.43
2018-06-20T18:59:37.306Z,2.87
2018-06-20T19:02:11.013Z,3.20
2018-06-20T19:04:44.686Z,5.60
2018-06-20T19:07:18.489Z,5.33
2018-06-20T19:09:46.983Z,3.33
2018-06-20T19:12:15.397Z,3.30
2018-06-20T19:14:43.845Z,3.40
2018-06-20T19:17:12.293Z,4.93
2018-06-20T19:19:40.717Z,4.93
2018-06-20T19:22:09.165Z,3.83
2018-06-20T19:24:37.583Z,3.40
2018-06-20T19:27:06.034Z,5.60
2018-06-20T19:29:34.494Z,2.97
2018-06-20T19:32:02.951Z,3.60
2018-06-20T19:34:31.365Z,4.13
2018-06-20T19:36:59.793Z,3.90
2018-06-20T19:39:33.709Z,3.43
2018-06-20T19:42:02.144Z,3.73
2018-06-20T19:44:33.038Z,4.90
2018-06-20T19:47:02.439Z,5.20
2018-06-20T19:49:30.901Z,3.80
2018-06-20T19:51:59.321Z,4.67
2018-06-20T19:54:27.793Z,4.17
2018-06-20T19:56:56.242Z,3.90
2018-06-20T19:59:25.531Z,4.20
2018-06-20T20:01:54.343Z,3.57
2018-06-20T20:04:23.208Z,4.10
2018-06-20T20:06:51.636Z,3.90
2018-06-20T20:09:20.075Z,3.80
2018-06-20T20:11:48.201Z,5.30
2018-06-20T20:14:16.745Z,3.60
2018-06-20T20:16:45.191Z,3.93
2018-06-20T20:19:13.654Z,3.83
2018-06-20T20:21:42.082Z,4.67
2018-06-20T20:24:10.510Z,4.47
2018-06-20T20:26:38.958Z,3.87
2018-06-20T20:29:07.525Z,4.10
2018-06-20T20:31:35.932Z,3.63
2018-06-20T20:34:04.449Z,3.87
2018-06-20T20:36:32.833Z,3.50
2018-06-20T20:39:01.276Z,4.13
2018-06-20T20:41:29.734Z,3.60
2018-06-20T20:43:58.138Z,4.03
2018-06-20T20:46:26.547Z,4.03
2018-06-20T20:48:55.048Z,4.30
2018-06-20T20:51:23.473Z,4.17
2018-06-20T20:53:51.910Z,5.43
2018-06-20T20:56:20.015Z,4.30
2018-06-20T20:58:48.441Z,5.70
2018-06-20T21:01:16.879Z,3.60
2018-06-20T21:03:45.360Z,3.50
2018-06-20T21:06:13.832Z,4.87
2018-06-20T21:08:42.296Z,3.70
2018-06-20T21:11:10.718Z,4.37
2018-06-20T21:13:39.145Z,3.53
2018-06-20T21:16:07.570Z,4.37
2018-06-20T21:18:35.989Z,4.77
2018-06-20T21:21:04.438Z,4.73
2018-06-20T21:23:32.866Z,4.80
2018-06-20T21:26:01.333Z,5.30
2018-06-20T21:28:29.760Z,3.63
2018-06-20T21:30:58.344Z,6.07
2018-06-20T21:33:26.790Z,4.00
2018-06-20T21:35:55.231Z,4.07
2018-06-20T21:38:23.653Z,4.93
2018-06-20T21:40:52.109Z,3.60
2018-06-20T21:43:20.544Z,5.83
2018-06-20T21:45:48.978Z,4.20
2018-06-20T21:48:17.405Z,4.00
2018-06-20T21:50:45.842Z,3.63
2018-06-20T21:53:14.274Z,4.23
2018-06-20T21:55:42.718Z,5.53
2018-06-20T21:58:11.125Z,4.47
2018-06-20T22:00:39.573Z,3.80
2018-06-20T22:03:08.016Z,4.30
2018-06-20T22:05:36.122Z,4.33
2018-06-20T22:08:04.590Z,4.13
2018-06-20T22:10:33.022Z,5.00
2018-06-20T22:13:01.471Z,3.50
2018-06-20T22:15:29.926Z,6.03
2018-06-20T22:17:58.073Z,3.93
2018-06-20T22:20:26.505Z,3.67
2018-06-20T22:22:55.085Z,5.40
2018-06-20T22:25:23.545Z,4.07
2018-06-20T22:27:51.990Z,3.97
2018-06-20T22:30:20.425Z,6.17
2018-06-20T22:32:48.918Z,6.57
2018-06-20T22:35:17.329Z,5.20
2018-06-20T22:37:45.765Z,4.17
2018-06-20T22:40:14.190Z,4.63
2018-06-20T22:42:42.631Z,4.30
2018-06-20T22:45:11.058Z,4.33
2018-06-20T22:47:39.200Z,5.90
2018-06-20T22:50:07.639Z,4.37
2018-06-20T22:52:36.095Z,5.03
2018-06-20T22:55:04.601Z,4.13
2018-06-20T22:57:33.037Z,4.57
2018-06-20T23:00:01.496Z,4.30
2018-06-20T23:02:29.966Z,4.37
2018-06-20T23:04:58.398Z,5.10
2018-06-20T23:07:26.536Z,4.23
2018-06-20T23:10:04.714Z,4.23
2018-06-20T23:12:33.165Z,4.80
2018-06-20T23:15:01.610Z,4.57
2018-06-20T23:17:30.041Z,6.47
2018-06-20T23:19:58.467Z,4.63
2018-06-20T23:22:26.901Z,4.70
2018-06-20T23:24:55.402Z,5.13
2018-06-20T23:27:23.842Z,4.43
2018-06-20T23:29:52.303Z,4.80
2018-06-20T23:32:20.728Z,9.60
2018-06-20T23:34:49.174Z,6.30
2018-06-20T23:37:17.643Z,5.00
2018-06-20T23:39:46.091Z,4.70
2018-06-20T23:42:14.502Z,4.30
2018-06-20T23:44:42.653Z,4.63
2018-06-20T23:47:11.071Z,4.63
2018-06-20T23:49:39.212Z,5.30
2018-06-20T23:52:07.613Z,6.30
2018-06-20T23:54:35.748Z,4.73
2018-06-20T23:57:04.174Z,5.53
2018-06-20T23:59:32.609Z,4.90
